createdAt,value
2023-03-06T00:00:28.545Z,51.25
2023-03-06T00:02:57.805Z,48.03
2023-03-06T00:05:27.562Z,58.33
2023-03-06T00:07:56.377Z,43.50
2023-03-06T00:10:26.982Z,49.17
2023-03-06T00:12:59.364Z,60.92
2023-03-06T00:15:29.178Z,49.30
2023-03-06T00:17:58.934Z,52.83
2023-03-06T00:20:28.840Z,46.13
2023-03-06T00:22:57.996Z,38.08
2023-03-06T00:25:27.180Z,48.45
2023-03-06T00:27:57.895Z,52.13
2023-03-06T00:30:27.180Z,54.45
2023-03-06T00:32:56.327Z,55.85
2023-03-06T00:35:25.564Z,44.80
2023-03-06T00:37:54.389Z,60.22
2023-03-06T00:40:23.698Z,51.42
2023-03-06T00:42:52.948Z,49.10
2023-03-06T00:45:23.510Z,56.73
2023-03-06T00:47:52.830Z,54.53
2023-03-06T00:50:22.030Z,53.22
2023-03-06T00:52:50.761Z,63.78
2023-03-06T00:55:20.103Z,52.03
2023-03-06T00:57:49.317Z,50.92
2023-03-06T01:00:19.170Z,50.20
2023-03-06T01:02:49.658Z,52.58
2023-03-06T01:05:18.857Z,53.78
2023-03-06T01:07:47.679Z,52.00
2023-03-06T01:10:16.927Z,57.00
2023-03-06T01:12:46.775Z,41.70
2023-03-06T01:15:15.971Z,50.88
2023-03-06T01:17:45.214Z,48.70
2023-03-06T01:20:17.158Z,48.28
2023-03-06T01:22:45.859Z,50.47
2023-03-06T01:25:15.100Z,50.80
2023-03-06T01:27:44.910Z,52.75
2023-03-06T01:30:14.660Z,51.05
2023-03-06T01:32:43.754Z,54.17
2023-03-06T01:35:13.910Z,61.38
2023-03-06T01:37:44.057Z,54.80
2023-03-06T01:40:14.371Z,54.47
2023-03-06T01:42:45.409Z,48.90
2023-03-06T01:45:53.007Z,46.25
2023-03-06T01:48:23.443Z,59.97
2023-03-06T01:50:54.380Z,45.05
2023-03-06T01:55:54.253Z,48.97
2023-03-06T01:58:24.120Z,47.07
2023-03-06T02:00:53.251Z,56.22
2023-03-06T02:03:25.008Z,45.70
2023-03-06T02:05:54.615Z,47.63
2023-03-06T02:08:25.754Z,49.45
2023-03-06T02:11:00.039Z,48.28
2023-03-06T02:13:29.226Z,42.70
2023-03-06T02:15:58.386Z,49.77
2023-03-06T02:18:27.662Z,49.17
2023-03-06T02:20:58.306Z,39.33
2023-03-06T02:23:33.440Z,54.30
2023-03-06T02:26:04.406Z,49.75
2023-03-06T02:28:33.849Z,37.97
2023-03-06T02:31:02.978Z,51.95
2023-03-06T02:33:32.130Z,46.77
2023-03-06T02:36:02.660Z,46.90
2023-03-06T02:38:35.250Z,41.67
2023-03-06T02:41:06.868Z,52.95
2023-03-06T02:43:39.390Z,50.92
2023-03-06T02:46:09.075Z,53.83
2023-03-06T02:48:38.108Z,46.53
2023-03-06T02:51:07.543Z,53.92
2023-03-06T02:53:36.600Z,43.78
2023-03-06T02:56:07.918Z,53.15
2023-03-06T02:58:36.946Z,43.95
2023-03-06T03:01:06.734Z,45.75
2023-03-06T03:03:36.667Z,52.55
2023-03-06T03:06:07.177Z,54.38
2023-03-06T03:08:37.440Z,46.75
2023-03-06T03:11:09.367Z,47.10
2023-03-06T03:13:41.540Z,50.92
2023-03-06T03:16:16.743Z,42.22
2023-03-06T03:18:48.129Z,50.35
2023-03-06T03:21:19.338Z,50.80
2023-03-06T03:23:50.192Z,48.88
2023-03-06T03:26:22.718Z,55.85
2023-03-06T03:29:12.142Z,57.35
2023-03-06T03:31:41.161Z,47.38
2023-03-06T03:34:10.230Z,50.28
2023-03-06T03:36:41.987Z,50.30
2023-03-06T03:39:12.622Z,47.95
2023-03-06T03:41:45.137Z,54.33
2023-03-06T03:44:15.008Z,52.10
2023-03-06T03:46:44.939Z,47.60
2023-03-06T03:49:19.239Z,45.25
2023-03-06T03:51:50.334Z,53.50
2023-03-06T03:56:52.736Z,54.05
2023-03-06T03:59:26.940Z,50.08
2023-03-06T04:02:07.549Z,53.97
2023-03-06T04:04:43.317Z,58.38
2023-03-06T04:07:13.478Z,63.05
2023-03-06T04:09:43.246Z,69.10
2023-03-06T04:12:13.908Z,47.45
2023-03-06T04:14:43.901Z,67.78
2023-03-06T04:17:13.138Z,61.13
2023-03-06T04:19:42.128Z,68.18
2023-03-06T04:22:11.239Z,46.35
2023-03-06T04:24:42.008Z,57.00
2023-03-06T04:27:11.875Z,61.28
2023-03-06T04:29:42.705Z,60.08
2023-03-06T04:32:12.234Z,59.15
2023-03-06T04:34:42.233Z,61.75
2023-03-06T04:37:14.870Z,56.47
2023-03-06T04:39:44.271Z,57.70
2023-03-06T04:42:13.411Z,59.27
2023-03-06T04:44:44.016Z,42.17
2023-03-06T04:47:13.450Z,60.60
2023-03-06T04:49:42.249Z,59.53
2023-03-06T04:52:11.568Z,57.10
2023-03-06T04:54:41.546Z,55.35
2023-03-06T04:57:11.689Z,60.50
2023-03-06T04:59:40.838Z,63.20
2023-03-06T05:02:11.467Z,37.95
2023-03-06T05:04:40.301Z,48.35
2023-03-06T05:07:09.635Z,46.00
2023-03-06T05:09:39.214Z,43.38
2023-03-06T05:12:08.917Z,54.47
2023-03-06T05:14:38.320Z,44.80
2023-03-06T05:17:07.547Z,60.10
2023-03-06T05:19:37.780Z,52.50
2023-03-06T05:22:07.471Z,55.47
2023-03-06T05:24:36.579Z,55.40
2023-03-06T05:27:06.058Z,49.97
2023-03-06T05:29:35.248Z,63.78
2023-03-06T05:32:04.437Z,47.20
2023-03-06T05:34:33.196Z,58.25
2023-03-06T05:37:03.766Z,58.28
2023-03-06T05:39:32.914Z,57.92
2023-03-06T05:42:02.022Z,48.80
2023-03-06T05:44:33.466Z,55.67
2023-03-06T05:47:03.050Z,43.70
2023-03-06T05:49:33.775Z,40.40
2023-03-06T05:52:06.766Z,47.40
2023-03-06T05:54:37.351Z,61.50
2023-03-06T05:57:07.365Z,35.15
2023-03-06T06:02:05.810Z,52.20
2023-03-06T06:04:34.663Z,52.57
2023-03-06T06:07:06.282Z,59.15
2023-03-06T06:09:36.581Z,57.50
2023-03-06T06:12:06.119Z,60.63
2023-03-06T06:14:36.264Z,56.25
2023-03-06T06:17:07.362Z,47.20
2023-03-06T06:19:36.115Z,48.55
2023-03-06T06:22:08.074Z,57.80
2023-03-06T06:24:37.358Z,20.50
2023-03-06T06:27:07.161Z,53.60
2023-03-06T06:29:37.285Z,53.28
2023-03-06T06:32:07.436Z,42.70
2023-03-06T06:34:36.495Z,53.50
2023-03-06T06:37:05.737Z,43.88
2023-03-06T06:39:36.732Z,61.60
2023-03-06T06:42:28.592Z,51.42
2023-03-06T06:44:55.747Z,46.17
2023-03-06T06:47:25.863Z,44.95
2023-03-06T06:52:24.952Z,35.92
2023-03-06T06:54:55.888Z,36.40
2023-03-06T06:57:25.387Z,34.67
2023-03-06T06:59:54.886Z,43.93
2023-03-06T07:02:24.194Z,26.58
2023-03-06T07:05:03.811Z,38.20
2023-03-06T07:07:36.689Z,32.08
2023-03-06T07:10:09.794Z,36.22
2023-03-06T07:12:39.153Z,34.97
2023-03-06T07:15:09.889Z,34.90
2023-03-06T07:17:39.194Z,34.17
2023-03-06T07:20:10.718Z,31.77
2023-03-06T07:22:50.420Z,34.22
2023-03-06T07:25:22.708Z,32.38
2023-03-06T07:27:54.526Z,39.50
2023-03-06T07:30:24.702Z,33.55
2023-03-06T07:32:55.243Z,37.60
2023-03-06T07:35:25.875Z,39.25
2023-03-06T07:37:54.989Z,35.53
2023-03-06T07:40:26.184Z,36.15
2023-03-06T07:43:06.048Z,30.45
2023-03-06T07:45:47.072Z,30.83
2023-03-06T07:50:45.250Z,34.00
2023-03-06T07:53:14.446Z,29.20
2023-03-06T07:55:45.472Z,32.00
2023-03-06T07:58:14.759Z,38.60
2023-03-06T08:00:43.970Z,28.95
2023-03-06T08:03:13.995Z,27.60
2023-03-06T08:05:43.223Z,25.33
2023-03-06T08:08:12.781Z,28.38
2023-03-06T08:10:41.677Z,27.88
2023-03-06T08:13:12.570Z,31.05
2023-03-06T08:15:41.908Z,28.58
2023-03-06T08:18:11.715Z,29.95
2023-03-06T08:20:40.897Z,30.90
2023-03-06T08:23:10.015Z,29.95
2023-03-06T08:25:38.866Z,24.58
2023-03-06T08:28:07.956Z,21.83
2023-03-06T08:30:38.634Z,31.60
2023-03-06T08:33:08.430Z,24.88
2023-03-06T08:35:37.835Z,31.70
2023-03-06T08:38:07.196Z,24.20
2023-03-06T08:40:36.283Z,24.73
2023-03-06T08:43:07.241Z,26.90
2023-03-06T08:45:43.482Z,29.98
2023-03-06T08:48:16.963Z,29.42
2023-03-06T08:50:49.912Z,23.50
2023-03-06T08:53:33.458Z,25.77
2023-03-06T08:56:20.365Z,21.95
2023-03-06T08:58:55.867Z,26.35
2023-03-06T09:01:31.787Z,25.42
2023-03-06T09:04:07.203Z,24.33
2023-03-06T09:06:42.479Z,20.27
2023-03-06T09:09:24.229Z,26.75
2023-03-06T09:12:00.108Z,17.05
2023-03-06T09:14:40.125Z,13.18
2023-03-06T09:17:16.762Z,17.05
2023-03-06T09:19:51.947Z,13.13
2023-03-06T09:22:27.857Z,17.02
2023-03-06T09:25:04.418Z,14.10
2023-03-06T09:27:36.345Z,21.98
2023-03-06T09:30:13.162Z,15.95
2023-03-06T09:32:49.510Z,24.00
2023-03-06T09:35:23.678Z,26.73
2023-03-06T09:38:00.724Z,19.38
2023-03-06T09:40:45.661Z,19.80
2023-03-06T09:43:24.778Z,23.27
2023-03-06T09:46:00.887Z,22.10
2023-03-06T09:48:46.473Z,14.90
2023-03-06T09:51:22.547Z,19.50
2023-03-06T09:54:04.542Z,22.33
2023-03-06T09:56:39.897Z,17.52
2023-03-06T09:59:19.994Z,18.73
2023-03-06T10:02:02.929Z,19.58
2023-03-06T10:04:44.644Z,28.70
2023-03-06T10:07:24.640Z,27.10
2023-03-06T10:10:00.548Z,24.95
2023-03-06T10:12:41.431Z,20.90
2023-03-06T10:15:21.761Z,12.90
2023-03-06T10:17:59.256Z,15.93
2023-03-06T10:20:40.461Z,20.88
2023-03-06T10:23:27.995Z,22.15
2023-03-06T10:26:04.335Z,11.75
2023-03-06T10:28:40.236Z,19.05
2023-03-06T10:31:19.415Z,16.33
2023-03-06T10:33:55.533Z,17.73
2023-03-06T10:36:28.416Z,23.33
2023-03-06T10:38:59.719Z,16.90
2023-03-06T10:41:30.218Z,22.30
2023-03-06T10:46:47.427Z,13.65
2023-03-06T10:49:34.684Z,17.10
2023-03-06T10:52:07.468Z,25.83
2023-03-06T10:54:38.381Z,22.52
2023-03-06T10:57:22.914Z,14.32
2023-03-06T10:59:55.139Z,14.15
2023-03-06T11:02:30.241Z,16.70
2023-03-06T11:05:00.444Z,17.73
2023-03-06T11:07:32.801Z,21.83
2023-03-06T11:10:06.228Z,21.45
2023-03-06T11:12:37.403Z,14.32
2023-03-06T11:17:53.826Z,25.30
2023-03-06T11:20:24.912Z,15.23
2023-03-06T11:22:58.414Z,12.43
2023-03-06T11:25:31.969Z,19.45
2023-03-06T11:28:04.523Z,13.52
2023-03-06T11:30:39.531Z,26.75
2023-03-06T11:33:18.147Z,36.13
2023-03-06T11:35:52.563Z,22.08
2023-03-06T11:38:27.546Z,16.58
2023-03-06T11:40:59.414Z,28.08
2023-03-06T11:43:34.026Z,20.02
2023-03-06T11:46:07.118Z,22.08
2023-03-06T11:48:40.976Z,23.42
2023-03-06T11:51:16.441Z,24.20
2023-03-06T11:53:49.213Z,18.80
2023-03-06T11:56:31.402Z,24.67
2023-03-06T11:59:10.294Z,19.15
2023-03-06T12:01:42.324Z,14.75
2023-03-06T12:04:47.605Z,13.80
2023-03-06T12:07:30.395Z,19.42
2023-03-06T12:10:08.249Z,16.85
2023-03-06T12:13:00.598Z,14.32
2023-03-06T12:15:56.835Z,20.02
2023-03-06T12:18:43.044Z,17.90
2023-03-06T12:21:17.414Z,20.92
2023-03-06T12:24:04.083Z,26.17
2023-03-06T12:26:56.865Z,14.73
2023-03-06T12:30:05.765Z,21.60
2023-03-06T12:32:44.587Z,32.20
2023-03-06T12:35:40.380Z,24.50
2023-03-06T12:38:24.479Z,31.90
2023-03-06T12:41:02.426Z,20.08
2023-03-06T12:44:06.340Z,28.73
2023-03-06T12:46:40.367Z,19.55
2023-03-06T12:49:17.792Z,21.15
2023-03-06T12:51:54.779Z,33.33
2023-03-06T12:54:28.951Z,38.25
2023-03-06T12:56:59.696Z,23.42
2023-03-06T12:59:47.633Z,34.83
2023-03-06T13:02:55.816Z,30.40
2023-03-06T13:05:56.692Z,33.05
2023-03-06T13:08:41.457Z,25.00
2023-03-06T13:11:25.208Z,27.92
2023-03-06T13:13:55.786Z,28.52
2023-03-06T13:16:30.465Z,24.60
2023-03-06T13:19:13.743Z,26.05
2023-03-06T13:22:03.570Z,30.40
2023-03-06T13:24:37.634Z,31.50
2023-03-06T13:27:10.876Z,29.65
2023-03-06T13:29:52.307Z,30.60
2023-03-06T13:32:35.505Z,34.42
2023-03-06T13:35:52.256Z,38.53
2023-03-06T13:38:56.746Z,33.35
2023-03-06T13:41:54.796Z,41.28
2023-03-06T13:44:48.917Z,36.58
2023-03-06T13:48:02.478Z,45.78
2023-03-06T13:50:43.701Z,43.88
2023-03-06T13:53:57.283Z,46.40
2023-03-06T13:56:52.329Z,25.17
2023-03-06T13:59:54.396Z,31.08
2023-03-06T14:02:42.718Z,42.95
2023-03-06T14:05:14.203Z,44.50
2023-03-06T14:07:46.049Z,49.30
2023-03-06T14:10:24.136Z,41.97
2023-03-06T14:13:03.382Z,44.00
2023-03-06T14:15:41.513Z,45.67
2023-03-06T14:18:17.869Z,34.85
2023-03-06T14:20:50.094Z,49.78
2023-03-06T14:23:28.104Z,52.40
2023-03-06T14:26:02.761Z,46.70
2023-03-06T14:28:33.550Z,44.83
2023-03-06T14:31:06.140Z,54.28
2023-03-06T14:33:41.486Z,55.47
2023-03-06T14:36:15.039Z,58.53
2023-03-06T14:38:49.206Z,55.67
2023-03-06T14:41:30.376Z,50.22
2023-03-06T14:46:46.664Z,50.80
2023-03-06T14:49:16.577Z,51.72
2023-03-06T14:51:48.152Z,45.28
2023-03-06T14:54:21.686Z,50.80
2023-03-06T14:56:53.467Z,55.55
2023-03-06T14:59:25.943Z,55.78
2023-03-06T15:01:58.896Z,55.58
2023-03-06T15:04:31.943Z,53.42
2023-03-06T15:07:01.590Z,56.33
2023-03-06T15:09:33.565Z,62.03
2023-03-06T15:12:04.353Z,57.70
2023-03-06T15:14:36.773Z,62.53
2023-03-06T15:17:26.986Z,65.47
2023-03-06T15:19:57.498Z,64.70
2023-03-06T15:22:32.375Z,57.95
2023-03-06T15:25:26.905Z,63.75
2023-03-06T15:27:57.640Z,58.20
2023-03-06T15:30:30.488Z,59.67
2023-03-06T15:33:24.238Z,61.10
2023-03-06T15:35:57.526Z,58.65
2023-03-06T15:38:36.511Z,55.95
2023-03-06T15:41:23.635Z,56.33
2023-03-06T15:43:53.546Z,59.03
2023-03-06T15:46:22.576Z,64.28
2023-03-06T15:48:55.735Z,57.85
2023-03-06T15:51:25.050Z,65.03
2023-03-06T15:53:59.787Z,60.42
2023-03-06T15:56:39.928Z,57.88
2023-03-06T15:59:11.720Z,65.75
2023-03-06T16:01:43.090Z,65.50
2023-03-06T16:04:12.432Z,64.47
2023-03-06T16:06:44.490Z,66.07
2023-03-06T16:09:14.211Z,65.53
2023-03-06T16:11:45.447Z,66.05
2023-03-06T16:14:21.511Z,74.03
2023-03-06T16:16:51.146Z,66.88
2023-03-06T16:19:26.369Z,60.95
2023-03-06T16:21:56.626Z,69.30
2023-03-06T16:24:26.757Z,68.10
2023-03-06T16:29:30.165Z,67.70
2023-03-06T16:34:31.349Z,68.43
2023-03-06T16:37:00.556Z,66.72
2023-03-06T16:39:29.798Z,71.57
2023-03-06T16:42:00.667Z,77.68
2023-03-06T16:44:30.192Z,71.72
2023-03-06T16:47:01.972Z,70.05
2023-03-06T16:49:31.884Z,71.40
2023-03-06T16:52:04.721Z,69.88
2023-03-06T16:54:34.024Z,63.90
2023-03-06T16:57:04.719Z,66.45
2023-03-06T16:59:34.034Z,68.90
2023-03-06T17:02:03.219Z,66.25
2023-03-06T17:04:32.103Z,63.85
2023-03-06T17:07:01.519Z,62.43
2023-03-06T17:09:31.672Z,62.80
2023-03-06T17:12:03.810Z,60.90
2023-03-06T17:14:35.605Z,61.28
2023-03-06T17:17:05.482Z,62.35
2023-03-06T17:19:35.247Z,57.97
2023-03-06T17:22:05.264Z,60.78
2023-03-06T17:24:35.457Z,60.55
2023-03-06T17:27:07.594Z,59.60
2023-03-06T17:29:38.613Z,61.10
2023-03-06T17:32:10.932Z,54.95
2023-03-06T17:34:41.700Z,59.42
2023-03-06T17:37:13.150Z,57.50
2023-03-06T17:39:43.636Z,55.50
2023-03-06T17:42:15.791Z,50.17
2023-03-06T17:44:45.158Z,55.03
2023-03-06T17:47:14.260Z,59.65
2023-03-06T17:49:43.070Z,55.55
2023-03-06T17:52:12.880Z,51.58
2023-03-06T17:54:43.405Z,55.92
2023-03-06T17:57:17.081Z,55.40
2023-03-06T17:59:48.927Z,51.55
2023-03-06T18:02:19.258Z,55.50
2023-03-06T18:04:48.335Z,52.58
2023-03-06T18:07:17.709Z,42.37
2023-03-06T18:09:47.153Z,55.10
2023-03-06T18:12:16.876Z,53.65
2023-03-06T18:14:48.786Z,50.05
2023-03-06T18:17:18.272Z,50.58
2023-03-06T18:19:46.959Z,53.95
2023-03-06T18:22:16.259Z,47.53
2023-03-06T18:24:45.398Z,49.05
2023-03-06T18:27:14.865Z,44.70
2023-03-06T18:29:45.649Z,45.27
2023-03-06T18:32:16.849Z,47.88
2023-03-06T18:34:46.560Z,51.95
2023-03-06T18:37:15.763Z,49.22
2023-03-06T18:39:45.009Z,53.55
2023-03-06T18:42:14.193Z,54.17
2023-03-06T18:44:44.141Z,48.72
2023-03-06T18:47:13.821Z,50.85
2023-03-06T18:49:46.609Z,51.45
2023-03-06T18:52:15.932Z,45.25
2023-03-06T18:54:45.358Z,50.92
2023-03-06T18:57:14.438Z,49.47
2023-03-06T18:59:43.837Z,45.13
2023-03-06T19:02:13.941Z,43.63
2023-03-06T19:04:42.780Z,33.50
2023-03-06T19:07:14.483Z,47.22
2023-03-06T19:09:45.376Z,42.63
2023-03-06T19:12:15.663Z,44.15
2023-03-06T19:17:13.851Z,40.22
2023-03-06T19:19:45.084Z,40.10
2023-03-06T19:22:15.793Z,39.30
2023-03-06T19:24:46.984Z,44.75
2023-03-06T19:27:16.459Z,40.00
2023-03-06T19:29:45.726Z,41.50
2023-03-06T19:32:15.511Z,38.67
2023-03-06T19:34:44.498Z,46.08
2023-03-06T19:37:13.759Z,34.27
2023-03-06T19:39:44.794Z,47.33
2023-03-06T19:42:15.155Z,49.25
2023-03-06T19:49:43.269Z,43.40
2023-03-06T19:52:12.583Z,48.07
2023-03-06T19:54:43.410Z,42.92
2023-03-06T19:57:12.650Z,46.88
2023-03-06T19:59:41.986Z,46.72
2023-03-06T20:02:12.025Z,38.43
2023-03-06T20:04:41.000Z,49.83
2023-03-06T20:07:10.142Z,45.45
2023-03-06T20:09:39.267Z,38.80
2023-03-06T20:12:10.033Z,39.83
2023-03-06T20:14:39.260Z,39.25
2023-03-06T20:17:09.138Z,44.17
2023-03-06T20:19:38.278Z,48.72
2023-03-06T20:22:07.491Z,39.25
2023-03-06T20:24:36.723Z,35.00
2023-03-06T20:27:06.240Z,27.58
2023-03-06T20:29:37.217Z,37.45
2023-03-06T20:32:08.818Z,33.15
2023-03-06T20:34:39.219Z,38.72
2023-03-06T20:37:08.775Z,31.92
2023-03-06T20:39:38.770Z,40.00
2023-03-06T20:42:08.075Z,43.42
2023-03-06T20:44:38.692Z,35.60
2023-03-06T20:47:08.090Z,46.50
2023-03-06T20:49:37.419Z,46.78
2023-03-06T20:52:06.819Z,44.22
2023-03-06T20:54:36.063Z,36.97
2023-03-06T20:57:05.433Z,46.58
2023-03-06T20:59:34.505Z,42.28
2023-03-06T21:02:05.185Z,39.90
2023-03-06T21:04:33.954Z,44.22
2023-03-06T21:07:03.184Z,45.13
2023-03-06T21:09:34.578Z,46.87
2023-03-06T21:12:03.711Z,44.13
2023-03-06T21:14:33.160Z,44.50
2023-03-06T21:17:02.359Z,43.93
2023-03-06T21:19:32.651Z,45.13
2023-03-06T21:22:01.841Z,42.50
2023-03-06T21:24:31.095Z,40.75
2023-03-06T21:27:00.241Z,42.85
2023-03-06T21:29:29.358Z,43.85
2023-03-06T21:31:58.576Z,46.30
2023-03-06T21:34:27.776Z,43.70
2023-03-06T21:36:58.418Z,33.83
2023-03-06T21:39:27.724Z,46.90
2023-03-06T21:41:56.796Z,42.97
2023-03-06T21:44:25.973Z,43.95
2023-03-06T21:46:54.696Z,40.90
2023-03-06T21:49:26.258Z,45.67
2023-03-06T21:51:55.432Z,46.70
2023-03-06T21:54:26.964Z,42.17
2023-03-06T21:56:56.410Z,38.30
2023-03-06T21:59:25.841Z,43.00
2023-03-06T22:01:54.661Z,38.70
2023-03-06T22:04:23.830Z,34.72
2023-03-06T22:06:53.062Z,43.25
2023-03-06T22:11:53.732Z,46.80
2023-03-06T22:14:23.078Z,42.30
2023-03-06T22:16:52.726Z,48.43
2023-03-06T22:19:21.883Z,40.60
2023-03-06T22:21:50.980Z,41.85
2023-03-06T22:24:20.201Z,36.17
2023-03-06T22:26:49.338Z,44.58
2023-03-06T22:29:19.923Z,47.53
2023-03-06T22:34:17.614Z,45.95
2023-03-06T22:36:46.711Z,51.58
2023-03-06T22:39:15.939Z,54.25
2023-03-06T22:44:17.428Z,60.80
2023-03-06T22:46:47.965Z,54.50
2023-03-06T22:49:17.209Z,53.42
2023-03-06T22:51:46.323Z,50.53
2023-03-06T22:54:15.502Z,60.38
2023-03-06T22:56:45.332Z,56.03
2023-03-06T22:59:14.510Z,60.63
2023-03-06T23:01:43.358Z,57.45
2023-03-06T23:04:14.148Z,63.30
2023-03-06T23:06:44.859Z,58.38
2023-03-06T23:12:02.747Z,52.17
2023-03-06T23:14:51.378Z,51.70
2023-03-06T23:17:39.190Z,46.92
2023-03-06T23:20:28.531Z,48.47
2023-03-06T23:23:15.762Z,55.20
2023-03-06T23:25:45.216Z,40.92
2023-03-06T23:28:14.375Z,45.23
2023-03-06T23:30:43.892Z,38.17
2023-03-06T23:33:12.903Z,54.40
2023-03-06T23:35:44.292Z,53.42
2023-03-06T23:38:13.447Z,58.92
2023-03-06T23:40:42.289Z,55.45
2023-03-06T23:43:11.405Z,51.95
2023-03-06T23:45:40.488Z,54.47
2023-03-06T23:48:09.637Z,53.80
2023-03-06T23:50:42.618Z,53.08
2023-03-06T23:53:11.802Z,57.83
2023-03-06T23:55:42.671Z,58.53
2023-03-06T23:58:12.878Z,57.88
